sensor_id;sensor_type;location;lat;lon;timestamp;pressure;altitude;pressure_sealevel;temperature;humidity
1472;BME280;963;42.644;23.336;2024-02-04T00:02:18;94531.84;;;9.48;56.82
1472;BME280;963;42.644;23.336;2024-02-04T00:04:45;94523.16;;;9.63;56.75
1472;BME280;963;42.644;23.336;2024-02-04T00:07:11;94538.88;;;9.44;56.59
1472;BME280;963;42.644;23.336;2024-02-04T00:09:36;94547.41;;;9.57;56.31
1472;BME280;963;42.644;23.336;2024-02-04T00:12:02;94516.31;;;9.59;56.03
1472;BME280;963;42.644;23.336;2024-02-04T00:14:29;94529.78;;;9.57;56.45
1472;BME280;963;42.644;23.336;2024-02-04T00:16:54;94501.34;;;9.44;56.13
1472;BME280;963;42.644;23.336;2024-02-04T00:19:19;94494.91;;;9.41;56.68
1472;BME280;963;42.644;23.336;2024-02-04T00:21:45;94530.88;;;9.56;56.58
1472;BME280;963;42.644;23.336;2024-02-04T00:24:10;94523.63;;;9.50;56.85
1472;BME280;963;42.644;23.336;2024-02-04T00:26:35;94529.72;;;9.38;57.38
1472;BME280;963;42.644;23.336;2024-02-04T00:29:01;94528.88;;;9.50;56.71
1472;BME280;963;42.644;23.336;2024-02-04T00:31:26;94524.78;;;9.52;56.80
1472;BME280;963;42.644;23.336;2024-02-04T00:33:52;94521.06;;;9.53;56.49
1472;BME280;963;42.644;23.336;2024-02-04T00:36:17;94533.00;;;9.51;56.53
1472;BME280;963;42.644;23.336;2024-02-04T00:38:44;94531.16;;;9.51;56.96
1472;BME280;963;42.644;23.336;2024-02-04T00:41:09;94532.50;;;9.45;56.74
1472;BME280;963;42.644;23.336;2024-02-04T00:43:35;94534.47;;;9.48;56.77
1472;BME280;963;42.644;23.336;2024-02-04T00:46:00;94529.88;;;9.61;56.84
1472;BME280;963;42.644;23.336;2024-02-04T00:48:26;94538.44;;;9.74;56.99
1472;BME280;963;42.644;23.336;2024-02-04T00:50:52;94518.53;;;9.73;57.25
1472;BME280;963;42.644;23.336;2024-02-04T00:53:17;94524.38;;;9.50;58.16
1472;BME280;963;42.644;23.336;2024-02-04T00:55:42;94531.75;;;9.76;57.64
1472;BME280;963;42.644;23.336;2024-02-04T00:58:08;94520.31;;;9.68;57.76
1472;BME280;963;42.644;23.336;2024-02-04T01:00:33;94535.31;;;9.68;58.42
1472;BME280;963;42.644;23.336;2024-02-04T01:02:59;94513.34;;;9.60;58.70
1472;BME280;963;42.644;23.336;2024-02-04T01:05:24;94522.94;;;9.68;58.52
1472;BME280;963;42.644;23.336;2024-02-04T01:07:49;94516.41;;;9.62;58.56
1472;BME280;963;42.644;23.336;2024-02-04T01:10:15;94517.44;;;9.74;59.05
1472;BME280;963;42.644;23.336;2024-02-04T01:12:40;94538.44;;;9.74;58.84
1472;BME280;963;42.644;23.336;2024-02-04T01:15:06;94504.72;;;9.76;58.85
1472;BME280;963;42.644;23.336;2024-02-04T01:17:31;94521.22;;;9.76;58.83
1472;BME280;963;42.644;23.336;2024-02-04T01:19:58;94543.00;;;9.77;58.88
1472;BME280;963;42.644;23.336;2024-02-04T01:22:24;94506.84;;;9.70;59.21
1472;BME280;963;42.644;23.336;2024-02-04T01:24:52;94528.84;;;9.81;59.01
1472;BME280;963;42.644;23.336;2024-02-04T01:27:17;94479.44;;;9.87;59.27
1472;BME280;963;42.644;23.336;2024-02-04T01:29:43;94504.56;;;9.68;59.52
1472;BME280;963;42.644;23.336;2024-02-04T01:32:08;94512.66;;;9.79;59.64
1472;BME280;963;42.644;23.336;2024-02-04T01:34:33;94490.31;;;9.69;59.15
1472;BME280;963;42.644;23.336;2024-02-04T01:36:59;94497.66;;;9.80;59.50
1472;BME280;963;42.644;23.336;2024-02-04T01:39:24;94507.56;;;9.86;59.10
1472;BME280;963;42.644;23.336;2024-02-04T01:41:50;94504.31;;;9.93;58.93
1472;BME280;963;42.644;23.336;2024-02-04T01:44:16;94506.25;;;9.96;59.27
1472;BME280;963;42.644;23.336;2024-02-04T01:46:42;94496.59;;;10.00;58.84
1472;BME280;963;42.644;23.336;2024-02-04T01:49:08;94484.72;;;10.06;58.88
1472;BME280;963;42.644;23.336;2024-02-04T01:51:34;94493.50;;;10.14;58.62
1472;BME280;963;42.644;23.336;2024-02-04T01:54:00;94491.22;;;10.12;58.39
1472;BME280;963;42.644;23.336;2024-02-04T01:56:25;94488.66;;;10.16;58.40
1472;BME280;963;42.644;23.336;2024-02-04T01:58:52;94490.75;;;10.07;58.51
1472;BME280;963;42.644;23.336;2024-02-04T02:01:19;94504.13;;;10.01;58.55
1472;BME280;963;42.644;23.336;2024-02-04T02:03:44;94479.13;;;10.08;59.01
1472;BME280;963;42.644;23.336;2024-02-04T02:06:10;94486.50;;;10.02;58.59
1472;BME280;963;42.644;23.336;2024-02-04T02:08:35;94481.41;;;10.09;58.48
1472;BME280;963;42.644;23.336;2024-02-04T02:11:40;94475.28;;;10.21;58.22
1472;BME280;963;42.644;23.336;2024-02-04T02:13:58;94466.19;;;10.18;58.37
1472;BME280;963;42.644;23.336;2024-02-04T02:16:26;94478.56;;;10.18;58.29
1472;BME280;963;42.644;23.336;2024-02-04T02:19:05;94490.63;;;10.19;58.78
1472;BME280;963;42.644;23.336;2024-02-04T02:26:53;94473.66;;;10.16;58.19
1472;BME280;963;42.644;23.336;2024-02-04T02:29:18;94469.38;;;10.08;58.87
1472;BME280;963;42.644;23.336;2024-02-04T02:31:44;94469.03;;;10.10;58.49
1472;BME280;963;42.644;23.336;2024-02-04T02:34:11;94489.56;;;10.04;58.93
1472;BME280;963;42.644;23.336;2024-02-04T02:36:43;94431.03;;;9.88;59.23
1472;BME280;963;42.644;23.336;2024-02-04T02:39:16;94483.38;;;9.96;58.91
1472;BME280;963;42.644;23.336;2024-02-04T02:41:48;94488.41;;;9.86;59.27
1472;BME280;963;42.644;23.336;2024-02-04T02:44:15;94486.28;;;9.91;58.89
1472;BME280;963;42.644;23.336;2024-02-04T02:46:41;94460.34;;;9.90;59.08
1472;BME280;963;42.644;23.336;2024-02-04T02:49:08;94471.41;;;9.99;59.06
1472;BME280;963;42.644;23.336;2024-02-04T02:51:33;94453.78;;;9.99;59.05
1472;BME280;963;42.644;23.336;2024-02-04T02:53:59;94473.59;;;10.13;58.60
1472;BME280;963;42.644;23.336;2024-02-04T02:56:24;94471.72;;;10.13;58.58
1472;BME280;963;42.644;23.336;2024-02-04T02:58:50;94442.75;;;10.10;58.08
1472;BME280;963;42.644;23.336;2024-02-04T03:01:15;94451.75;;;10.09;58.38
1472;BME280;963;42.644;23.336;2024-02-04T03:03:40;94466.41;;;10.10;58.47
1472;BME280;963;42.644;23.336;2024-02-04T03:06:06;94461.38;;;10.20;58.29
1472;BME280;963;42.644;23.336;2024-02-04T03:08:31;94445.44;;;10.13;58.44
1472;BME280;963;42.644;23.336;2024-02-04T03:10:57;94445.25;;;10.22;58.17
1472;BME280;963;42.644;23.336;2024-02-04T03:13:22;94420.84;;;10.21;57.84
1472;BME280;963;42.644;23.336;2024-02-04T03:15:48;94463.03;;;10.28;58.45
1472;BME280;963;42.644;23.336;2024-02-04T03:18:13;94454.75;;;10.26;58.87
1472;BME280;963;42.644;23.336;2024-02-04T03:20:39;94450.72;;;10.32;58.50
1472;BME280;963;42.644;23.336;2024-02-04T03:23:05;94444.34;;;10.33;58.48
1472;BME280;963;42.644;23.336;2024-02-04T03:25:30;94454.88;;;10.33;59.06
1472;BME280;963;42.644;23.336;2024-02-04T03:27:55;94443.81;;;10.44;58.68
1472;BME280;963;42.644;23.336;2024-02-04T03:30:21;94452.66;;;10.36;59.06
1472;BME280;963;42.644;23.336;2024-02-04T03:32:47;94456.09;;;10.40;58.99
1472;BME280;963;42.644;23.336;2024-02-04T03:35:12;94436.34;;;10.46;58.74
1472;BME280;963;42.644;23.336;2024-02-04T03:37:37;94455.78;;;10.41;58.96
1472;BME280;963;42.644;23.336;2024-02-04T03:40:03;94428.56;;;10.33;59.18
1472;BME280;963;42.644;23.336;2024-02-04T03:42:28;94433.00;;;10.29;59.55
1472;BME280;963;42.644;23.336;2024-02-04T03:44:54;94460.13;;;10.33;59.30
1472;BME280;963;42.644;23.336;2024-02-04T03:47:19;94443.94;;;10.51;58.67
1472;BME280;963;42.644;23.336;2024-02-04T03:49:45;94422.97;;;10.54;58.51
1472;BME280;963;42.644;23.336;2024-02-04T03:52:10;94402.81;;;10.62;58.53
1472;BME280;963;42.644;23.336;2024-02-04T03:54:35;94411.88;;;10.64;58.61
1472;BME280;963;42.644;23.336;2024-02-04T03:57:01;94434.13;;;10.71;58.56
1472;BME280;963;42.644;23.336;2024-02-04T03:59:26;94425.59;;;10.77;58.17
1472;BME280;963;42.644;23.336;2024-02-04T04:01:51;94421.75;;;10.71;58.33
1472;BME280;963;42.644;23.336;2024-02-04T04:04:20;94441.09;;;10.59;58.76
1472;BME280;963;42.644;23.336;2024-02-04T04:06:46;94422.63;;;10.56;58.97
1472;BME280;963;42.644;23.336;2024-02-04T04:09:12;94443.25;;;10.54;59.31
1472;BME280;963;42.644;23.336;2024-02-04T04:11:38;94419.09;;;10.48;59.43
1472;BME280;963;42.644;23.336;2024-02-04T04:14:03;94455.34;;;10.20;60.06
1472;BME280;963;42.644;23.336;2024-02-04T04:16:28;94445.88;;;10.34;60.07
1472;BME280;963;42.644;23.336;2024-02-04T04:18:54;94448.50;;;10.34;60.52
1472;BME280;963;42.644;23.336;2024-02-04T04:21:20;94437.03;;;10.43;60.05
1472;BME280;963;42.644;23.336;2024-02-04T04:23:45;94424.72;;;10.47;59.82
1472;BME280;963;42.644;23.336;2024-02-04T04:26:11;94426.50;;;10.43;59.54
1472;BME280;963;42.644;23.336;2024-02-04T04:28:36;94422.03;;;10.43;59.79
1472;BME280;963;42.644;23.336;2024-02-04T04:31:01;94404.78;;;10.46;59.97
1472;BME280;963;42.644;23.336;2024-02-04T04:33:27;94426.09;;;10.21;61.13
1472;BME280;963;42.644;23.336;2024-02-04T04:35:52;94420.34;;;10.35;60.99
1472;BME280;963;42.644;23.336;2024-02-04T04:38:18;94449.06;;;10.44;60.89
1472;BME280;963;42.644;23.336;2024-02-04T04:40:43;94421.81;;;10.32;61.67
1472;BME280;963;42.644;23.336;2024-02-04T04:43:08;94416.94;;;10.34;61.15
1472;BME280;963;42.644;23.336;2024-02-04T04:45:34;94442.97;;;10.40;61.44
1472;BME280;963;42.644;23.336;2024-02-04T04:47:59;94435.34;;;10.34;62.07
1472;BME280;963;42.644;23.336;2024-02-04T04:50:25;94441.44;;;10.39;62.04
1472;BME280;963;42.644;23.336;2024-02-04T04:52:50;94429.63;;;10.48;61.58
1472;BME280;963;42.644;23.336;2024-02-04T04:55:15;94444.06;;;10.58;60.91
1472;BME280;963;42.644;23.336;2024-02-04T04:57:41;94461.03;;;10.60;60.49
1472;BME280;963;42.644;23.336;2024-02-04T05:00:06;94459.16;;;10.61;60.27
1472;BME280;963;42.644;23.336;2024-02-04T05:02:35;94449.50;;;10.69;59.89
1472;BME280;963;42.644;23.336;2024-02-04T05:05:01;94426.13;;;10.63;59.35
1472;BME280;963;42.644;23.336;2024-02-04T05:07:26;94446.94;;;10.72;58.99
1472;BME280;963;42.644;23.336;2024-02-04T05:09:51;94440.56;;;10.50;59.87
1472;BME280;963;42.644;23.336;2024-02-04T05:12:17;94443.66;;;10.56;59.45
1472;BME280;963;42.644;23.336;2024-02-04T05:14:42;94430.22;;;10.61;58.85
1472;BME280;963;42.644;23.336;2024-02-04T05:17:08;94436.47;;;10.53;59.42
1472;BME280;963;42.644;23.336;2024-02-04T05:19:35;94404.25;;;10.59;58.94
1472;BME280;963;42.644;23.336;2024-02-04T05:22:01;94449.38;;;10.61;59.37
1472;BME280;963;42.644;23.336;2024-02-04T05:24:27;94447.81;;;10.57;59.18
1472;BME280;963;42.644;23.336;2024-02-04T05:26:52;94442.25;;;10.62;58.83
1472;BME280;963;42.644;23.336;2024-02-04T05:29:17;94414.84;;;10.63;58.72
1472;BME280;963;42.644;23.336;2024-02-04T05:31:43;94445.13;;;10.53;58.89
1472;BME280;963;42.644;23.336;2024-02-04T05:34:09;94432.19;;;10.45;58.85
1472;BME280;963;42.644;23.336;2024-02-04T05:36:35;94441.84;;;10.60;58.37
1472;BME280;963;42.644;23.336;2024-02-04T05:39:13;94444.88;;;10.62;58.39
1472;BME280;963;42.644;23.336;2024-02-04T05:41:40;94443.31;;;10.57;58.46
1472;BME280;963;42.644;23.336;2024-02-04T05:44:06;94428.56;;;10.53;58.23
1472;BME280;963;42.644;23.336;2024-02-04T05:46:34;94446.34;;;10.59;58.17
1472;BME280;963;42.644;23.336;2024-02-04T05:48:59;94446.97;;;10.53;58.07
1472;BME280;963;42.644;23.336;2024-02-04T05:51:24;94464.81;;;10.63;58.12
1472;BME280;963;42.644;23.336;2024-02-04T05:53:50;94454.25;;;10.59;58.10
1472;BME280;963;42.644;23.336;2024-02-04T05:56:15;94447.22;;;10.67;57.36
1472;BME280;963;42.644;23.336;2024-02-04T05:58:41;94458.72;;;10.78;57.49
1472;BME280;963;42.644;23.336;2024-02-04T06:01:06;94448.19;;;10.78;57.14
1472;BME280;963;42.644;23.336;2024-02-04T06:03:31;94475.75;;;10.84;57.57
1472;BME280;963;42.644;23.336;2024-02-04T06:05:57;94479.47;;;10.83;57.28
1472;BME280;963;42.644;23.336;2024-02-04T06:08:22;94488.50;;;10.63;57.63
1472;BME280;963;42.644;23.336;2024-02-04T06:10:47;94490.72;;;10.80;57.51
1472;BME280;963;42.644;23.336;2024-02-04T06:13:14;94483.47;;;10.77;57.59
1472;BME280;963;42.644;23.336;2024-02-04T06:15:39;94480.19;;;10.80;57.77
1472;BME280;963;42.644;23.336;2024-02-04T06:18:05;94450.28;;;10.69;57.47
1472;BME280;963;42.644;23.336;2024-02-04T06:20:30;94487.91;;;10.73;57.69
1472;BME280;963;42.644;23.336;2024-02-04T06:22:55;94492.91;;;10.40;58.82
1472;BME280;963;42.644;23.336;2024-02-04T06:25:23;94480.53;;;10.40;58.46
1472;BME280;963;42.644;23.336;2024-02-04T06:27:48;94486.84;;;10.55;58.06
1472;BME280;963;42.644;23.336;2024-02-04T06:30:14;94500.94;;;10.66;58.08
1472;BME280;963;42.644;23.336;2024-02-04T06:32:39;94501.38;;;10.68;58.00
1472;BME280;963;42.644;23.336;2024-02-04T06:35:06;94481.19;;;10.76;57.78
1472;BME280;963;42.644;23.336;2024-02-04T06:37:31;94491.81;;;10.60;57.80
1472;BME280;963;42.644;23.336;2024-02-04T06:39:57;94491.47;;;10.61;58.12
1472;BME280;963;42.644;23.336;2024-02-04T06:42:22;94509.13;;;10.61;57.88
1472;BME280;963;42.644;23.336;2024-02-04T06:44:47;94501.44;;;10.52;58.16
1472;BME280;963;42.644;23.336;2024-02-04T06:47:13;94502.63;;;10.55;58.24
1472;BME280;963;42.644;23.336;2024-02-04T06:49:39;94513.41;;;10.69;58.13
1472;BME280;963;42.644;23.336;2024-02-04T06:52:05;94506.84;;;10.79;57.52
1472;BME280;963;42.644;23.336;2024-02-04T06:54:31;94511.81;;;10.84;57.54
1472;BME280;963;42.644;23.336;2024-02-04T06:56:56;94486.56;;;10.79;57.66
1472;BME280;963;42.644;23.336;2024-02-04T06:59:21;94479.78;;;10.78;57.47
1472;BME280;963;42.644;23.336;2024-02-04T07:01:47;94511.06;;;10.83;57.43
1472;BME280;963;42.644;23.336;2024-02-04T07:04:12;94507.38;;;10.88;57.38
1472;BME280;963;42.644;23.336;2024-02-04T07:06:38;94513.06;;;10.90;56.99
1472;BME280;963;42.644;23.336;2024-02-04T07:09:03;94506.03;;;10.98;57.00
1472;BME280;963;42.644;23.336;2024-02-04T07:11:29;94494.16;;;10.84;56.71
1472;BME280;963;42.644;23.336;2024-02-04T07:13:54;94507.16;;;10.77;57.47
1472;BME280;963;42.644;23.336;2024-02-04T07:16:24;94513.13;;;10.74;57.11
1472;BME280;963;42.644;23.336;2024-02-04T07:18:50;94485.59;;;10.68;57.40
1472;BME280;963;42.644;23.336;2024-02-04T07:21:15;94495.84;;;10.54;57.54
1472;BME280;963;42.644;23.336;2024-02-04T07:23:41;94496.66;;;10.58;57.41
1472;BME280;963;42.644;23.336;2024-02-04T07:26:07;94519.66;;;10.80;56.83
1472;BME280;963;42.644;23.336;2024-02-04T07:28:32;94515.22;;;10.84;57.06
1472;BME280;963;42.644;23.336;2024-02-04T07:30:58;94486.75;;;10.71;57.08
1472;BME280;963;42.644;23.336;2024-02-04T07:33:23;94505.38;;;10.62;57.39
1472;BME280;963;42.644;23.336;2024-02-04T07:35:48;94490.84;;;10.68;57.35
1472;BME280;963;42.644;23.336;2024-02-04T07:38:14;94496.88;;;10.69;57.03
1472;BME280;963;42.644;23.336;2024-02-04T07:40:39;94514.81;;;10.63;56.92
1472;BME280;963;42.644;23.336;2024-02-04T07:43:05;94474.63;;;10.85;56.29
1472;BME280;963;42.644;23.336;2024-02-04T07:45:30;94487.38;;;10.83;56.44
1472;BME280;963;42.644;23.336;2024-02-04T07:47:55;94516.97;;;11.00;56.11
1472;BME280;963;42.644;23.336;2024-02-04T07:50:21;94492.13;;;10.97;55.27
1472;BME280;963;42.644;23.336;2024-02-04T07:52:46;94533.06;;;10.94;55.56
1472;BME280;963;42.644;23.336;2024-02-04T07:55:12;94525.16;;;10.94;55.57
1472;BME280;963;42.644;23.336;2024-02-04T07:57:38;94530.44;;;10.94;55.79
1472;BME280;963;42.644;23.336;2024-02-04T08:00:03;94518.50;;;11.01;55.31
1472;BME280;963;42.644;23.336;2024-02-04T08:02:31;94519.44;;;11.12;55.22
1472;BME280;963;42.644;23.336;2024-02-04T08:04:56;94517.38;;;11.21;54.81
1472;BME280;963;42.644;23.336;2024-02-04T08:07:22;94513.38;;;11.31;54.29
1472;BME280;963;42.644;23.336;2024-02-04T08:09:48;94527.41;;;11.38;53.99
1472;BME280;963;42.644;23.336;2024-02-04T08:12:16;94511.72;;;11.45;53.57
1472;BME280;963;42.644;23.336;2024-02-04T08:14:41;94528.66;;;11.44;53.36
1472;BME280;963;42.644;23.336;2024-02-04T08:17:06;94493.75;;;11.51;53.31
1472;BME280;963;42.644;23.336;2024-02-04T08:19:32;94498.56;;;11.45;53.04
1472;BME280;963;42.644;23.336;2024-02-04T08:21:57;94508.53;;;11.55;52.12
1472;BME280;963;42.644;23.336;2024-02-04T08:24:24;94521.69;;;11.55;52.11
1472;BME280;963;42.644;23.336;2024-02-04T08:26:49;94501.94;;;11.69;52.62
1472;BME280;963;42.644;23.336;2024-02-04T08:29:15;94481.63;;;11.46;52.50
1472;BME280;963;42.644;23.336;2024-02-04T08:31:40;94494.84;;;11.73;52.51
1472;BME280;963;42.644;23.336;2024-02-04T08:34:06;94497.41;;;11.92;51.36
1472;BME280;963;42.644;23.336;2024-02-04T08:36:32;94502.69;;;11.92;52.01
1472;BME280;963;42.644;23.336;2024-02-04T08:38:58;94505.13;;;12.04;51.61
1472;BME280;963;42.644;23.336;2024-02-04T08:41:23;94502.56;;;12.11;51.30
1472;BME280;963;42.644;23.336;2024-02-04T08:43:48;94494.75;;;12.18;51.23
1472;BME280;963;42.644;23.336;2024-02-04T08:46:14;94490.50;;;12.10;50.50
1472;BME280;963;42.644;23.336;2024-02-04T08:48:40;94522.53;;;12.12;50.71
1472;BME280;963;42.644;23.336;2024-02-04T08:51:11;94494.47;;;11.97;51.28
1472;BME280;963;42.644;23.336;2024-02-04T08:53:37;94488.97;;;12.09;51.00
1472;BME280;963;42.644;23.336;2024-02-04T08:56:02;94508.19;;;12.10;51.09
1472;BME280;963;42.644;23.336;2024-02-04T08:58:27;94511.09;;;12.01;51.35
1472;BME280;963;42.644;23.336;2024-02-04T09:00:53;94505.81;;;12.01;51.90
1472;BME280;963;42.644;23.336;2024-02-04T09:03:18;94531.28;;;11.90;52.17
1472;BME280;963;42.644;23.336;2024-02-04T09:05:43;94502.34;;;11.94;52.48
1472;BME280;963;42.644;23.336;2024-02-04T09:08:09;94524.53;;;11.93;52.76
1472;BME280;963;42.644;23.336;2024-02-04T09:10:36;94500.47;;;11.94;52.79
1472;BME280;963;42.644;23.336;2024-02-04T09:13:01;94478.66;;;11.97;52.79
1472;BME280;963;42.644;23.336;2024-02-04T09:15:26;94508.56;;;11.82;52.87
1472;BME280;963;42.644;23.336;2024-02-04T09:17:52;94503.69;;;11.84;53.12
1472;BME280;963;42.644;23.336;2024-02-04T09:20:17;94498.72;;;11.79;52.94
1472;BME280;963;42.644;23.336;2024-02-04T09:22:42;94476.31;;;11.66;53.23
1472;BME280;963;42.644;23.336;2024-02-04T09:25:08;94496.72;;;11.95;53.19
1472;BME280;963;42.644;23.336;2024-02-04T09:27:34;94496.91;;;11.83;53.18
1472;BME280;963;42.644;23.336;2024-02-04T09:29:59;94499.66;;;11.90;53.31
1472;BME280;963;42.644;23.336;2024-02-04T09:32:25;94526.28;;;12.11;53.35
1472;BME280;963;42.644;23.336;2024-02-04T09:34:50;94533.59;;;12.21;52.53
1472;BME280;963;42.644;23.336;2024-02-04T09:37:15;94544.44;;;12.16;53.04
1472;BME280;963;42.644;23.336;2024-02-04T09:39:41;94532.78;;;12.17;52.88
1472;BME280;963;42.644;23.336;2024-02-04T09:42:08;94530.84;;;12.14;52.80
1472;BME280;963;42.644;23.336;2024-02-04T09:44:34;94515.66;;;12.31;52.94
1472;BME280;963;42.644;23.336;2024-02-04T09:47:01;94505.22;;;12.41;52.57
1472;BME280;963;42.644;23.336;2024-02-04T09:49:27;94519.69;;;12.55;52.35
1472;BME280;963;42.644;23.336;2024-02-04T09:51:53;94498.88;;;12.79;51.80
1472;BME280;963;42.644;23.336;2024-02-04T09:54:21;94516.06;;;12.66;51.99
1472;BME280;963;42.644;23.336;2024-02-04T09:56:47;94512.72;;;12.69;51.96
1472;BME280;963;42.644;23.336;2024-02-04T09:59:13;94504.38;;;12.64;51.73
1472;BME280;963;42.644;23.336;2024-02-04T10:01:38;94503.56;;;12.63;51.84
1472;BME280;963;42.644;23.336;2024-02-04T10:04:05;94503.75;;;12.77;51.82
1472;BME280;963;42.644;23.336;2024-02-04T10:06:30;94489.38;;;12.71;52.07
1472;BME280;963;42.644;23.336;2024-02-04T10:08:56;94500.72;;;12.75;51.65
1472;BME280;963;42.644;23.336;2024-02-04T10:11:21;94518.22;;;12.91;51.60
1472;BME280;963;42.644;23.336;2024-02-04T10:13:48;94506.31;;;13.07;51.00
1472;BME280;963;42.644;23.336;2024-02-04T10:16:15;94523.34;;;13.10;51.04
1472;BME280;963;42.644;23.336;2024-02-04T10:18:42;94497.31;;;13.12;51.46
1472;BME280;963;42.644;23.336;2024-02-04T10:21:18;94510.63;;;12.86;51.55
1472;BME280;963;42.644;23.336;2024-02-04T10:23:45;94523.03;;;12.81;52.06
1472;BME280;963;42.644;23.336;2024-02-04T10:26:10;94496.28;;;12.87;52.48
1472;BME280;963;42.644;23.336;2024-02-04T10:28:37;94535.94;;;12.90;52.36
1472;BME280;963;42.644;23.336;2024-02-04T10:31:03;94527.53;;;12.81;52.79
1472;BME280;963;42.644;23.336;2024-02-04T10:33:31;94538.31;;;12.65;53.55
1472;BME280;963;42.644;23.336;2024-02-04T10:35:57;94570.91;;;12.50;54.03
1472;BME280;963;42.644;23.336;2024-02-04T10:38:22;94497.34;;;12.45;54.17
1472;BME280;963;42.644;23.336;2024-02-04T10:40:53;94501.91;;;12.48;54.75
1472;BME280;963;42.644;23.336;2024-02-04T10:43:18;94527.47;;;12.44;54.73
1472;BME280;963;42.644;23.336;2024-02-04T10:45:45;94524.44;;;12.42;54.62
1472;BME280;963;42.644;23.336;2024-02-04T10:48:12;94522.88;;;12.37;54.83
1472;BME280;963;42.644;23.336;2024-02-04T10:50:41;94523.38;;;12.46;54.97
1472;BME280;963;42.644;23.336;2024-02-04T10:53:14;94496.22;;;12.46;54.45
1472;BME280;963;42.644;23.336;2024-02-04T10:55:41;94489.84;;;12.47;54.52
1472;BME280;963;42.644;23.336;2024-02-04T10:58:11;94481.31;;;12.27;55.00
1472;BME280;963;42.644;23.336;2024-02-04T11:00:37;94481.84;;;12.10;54.81
1472;BME280;963;42.644;23.336;2024-02-04T11:03:04;94495.47;;;12.15;55.29
1472;BME280;963;42.644;23.336;2024-02-04T11:05:31;94490.78;;;12.02;55.52
1472;BME280;963;42.644;23.336;2024-02-04T11:07:57;94497.66;;;12.10;55.69
1472;BME280;963;42.644;23.336;2024-02-04T11:10:24;94493.22;;;12.17;55.37
1472;BME280;963;42.644;23.336;2024-02-04T11:12:53;94471.28;;;12.10;55.84
1472;BME280;963;42.644;23.336;2024-02-04T11:15:21;94512.75;;;12.13;55.42
1472;BME280;963;42.644;23.336;2024-02-04T11:26:06;94461.22;;;12.49;54.38
1472;BME280;963;42.644;23.336;2024-02-04T11:28:33;94471.16;;;12.63;54.52
1472;BME280;963;42.644;23.336;2024-02-04T11:30:59;94479.66;;;12.82;53.74
1472;BME280;963;42.644;23.336;2024-02-04T11:33:24;94482.16;;;13.05;53.53
1472;BME280;963;42.644;23.336;2024-02-04T11:36:03;94476.38;;;12.93;53.24
1472;BME280;963;42.644;23.336;2024-02-04T11:38:35;94461.84;;;13.13;53.68
1472;BME280;963;42.644;23.336;2024-02-04T11:41:02;94457.56;;;13.38;53.30
1472;BME280;963;42.644;23.336;2024-02-04T11:43:28;94463.78;;;13.64;52.60
1472;BME280;963;42.644;23.336;2024-02-04T11:45:54;94460.88;;;13.76;51.62
1472;BME280;963;42.644;23.336;2024-02-04T11:48:19;94429.06;;;13.65;51.08
1472;BME280;963;42.644;23.336;2024-02-04T11:50:52;94435.41;;;13.54;51.29
1472;BME280;963;42.644;23.336;2024-02-04T11:53:18;94455.97;;;13.30;51.93
1472;BME280;963;42.644;23.336;2024-02-04T11:55:45;94422.22;;;13.57;51.84
1472;BME280;963;42.644;23.336;2024-02-04T11:58:11;94433.00;;;13.96;50.72
1472;BME280;963;42.644;23.336;2024-02-04T12:00:37;94411.97;;;14.18;50.08
1472;BME280;963;42.644;23.336;2024-02-04T12:03:04;94398.13;;;14.53;49.23
1472;BME280;963;42.644;23.336;2024-02-04T12:05:36;94414.09;;;14.92;48.17
1472;BME280;963;42.644;23.336;2024-02-04T12:08:04;94392.13;;;14.95;47.67
1472;BME280;963;42.644;23.336;2024-02-04T12:10:31;94397.03;;;15.18;47.21
1472;BME280;963;42.644;23.336;2024-02-04T12:12:59;94400.09;;;15.27;46.88
1472;BME280;963;42.644;23.336;2024-02-04T12:15:25;94427.69;;;15.54;46.61
1472;BME280;963;42.644;23.336;2024-02-04T12:17:50;94421.66;;;15.40;46.65
1472;BME280;963;42.644;23.336;2024-02-04T12:20:16;94437.19;;;15.30;46.80
1472;BME280;963;42.644;23.336;2024-02-04T12:22:42;94426.59;;;15.38;47.00
1472;BME280;963;42.644;23.336;2024-02-04T12:25:08;94398.94;;;15.35;47.03
1472;BME280;963;42.644;23.336;2024-02-04T12:27:34;94431.13;;;15.48;46.41
1472;BME280;963;42.644;23.336;2024-02-04T12:30:00;94386.81;;;15.16;46.58
1472;BME280;963;42.644;23.336;2024-02-04T12:32:25;94431.13;;;15.41;46.60
1472;BME280;963;42.644;23.336;2024-02-04T12:34:51;94409.91;;;15.48;46.52
1472;BME280;963;42.644;23.336;2024-02-04T12:37:19;94414.44;;;15.54;46.35
1472;BME280;963;42.644;23.336;2024-02-04T12:39:45;94416.72;;;15.77;45.40
1472;BME280;963;42.644;23.336;2024-02-04T12:42:10;94419.72;;;15.90;45.27
1472;BME280;963;42.644;23.336;2024-02-04T12:44:43;94400.06;;;15.73;44.71
1472;BME280;963;42.644;23.336;2024-02-04T12:47:09;94411.47;;;15.24;45.75
1472;BME280;963;42.644;23.336;2024-02-04T12:49:34;94410.31;;;15.07;46.34
1472;BME280;963;42.644;23.336;2024-02-04T12:52:07;94418.94;;;14.68;46.52
1472;BME280;963;42.644;23.336;2024-02-04T12:54:44;94412.03;;;14.35;47.63
1472;BME280;963;42.644;23.336;2024-02-04T12:57:10;94390.41;;;14.16;47.71
1472;BME280;963;42.644;23.336;2024-02-04T12:59:39;94402.16;;;14.22;47.75
1472;BME280;963;42.644;23.336;2024-02-04T13:02:07;94420.94;;;14.02;48.51
1472;BME280;963;42.644;23.336;2024-02-04T13:04:38;94423.28;;;14.15;48.11
1472;BME280;963;42.644;23.336;2024-02-04T13:07:07;94409.19;;;13.89;48.55
1472;BME280;963;42.644;23.336;2024-02-04T13:09:34;94406.53;;;13.89;48.54
1472;BME280;963;42.644;23.336;2024-02-04T13:12:07;94416.41;;;13.99;48.33
1472;BME280;963;42.644;23.336;2024-02-04T13:14:34;94419.44;;;14.05;48.22
1472;BME280;963;42.644;23.336;2024-02-04T13:16:59;94420.16;;;13.91;48.68
1472;BME280;963;42.644;23.336;2024-02-04T13:19:25;94429.47;;;13.74;49.22
1472;BME280;963;42.644;23.336;2024-02-04T13:21:50;94426.59;;;13.94;48.88
1472;BME280;963;42.644;23.336;2024-02-04T13:24:15;94440.63;;;14.08;48.14
1472;BME280;963;42.644;23.336;2024-02-04T13:26:41;94447.13;;;14.22;48.14
1472;BME280;963;42.644;23.336;2024-02-04T13:29:06;94428.41;;;14.62;47.49
1472;BME280;963;42.644;23.336;2024-02-04T13:31:32;94431.50;;;15.00;46.64
1472;BME280;963;42.644;23.336;2024-02-04T13:33:58;94439.44;;;15.21;45.66